Time;durP1;ratioP1;P1;durP2;ratioP2;P2;SDS_P1;SDS_P2;PMS_P1;PMS_P2;Temp;Humidity;BMP_temperature;BMP_pressure;BME280_temperature;BME280_humidity;BME280_pressure;Samples;Min_cycle;Max_cycle;Signal;HPM_P1;HPM_P2
2021/06/28 00:00:50;;;;;;;11.13;8.20;;;20.70;98.40;;;;;;5115771;23;20183;-75
2021/06/28 00:02:52;;;;;;;10.50;7.40;;;20.70;98.40;;;;;;5116539;23;20269;-75
2021/06/28 00:04:54;;;;;;;10.80;7.50;;;20.70;98.40;;;;;;5116053;23;20263;-74
2021/06/28 00:06:56;;;;;;;13.73;8.07;;;20.70;98.30;;;;;;5114998;23;20201;-74
2021/06/28 00:08:58;;;;;;;10.97;8.13;;;20.70;98.30;;;;;;5114112;23;20227;-74
2021/06/28 00:11:00;;;;;;;9.47;7.50;;;20.60;98.20;;;;;;5116181;23;20187;-75
2021/06/28 00:13:03;;;;;;;10.67;7.90;;;20.60;98.10;;;;;;5115750;23;20240;-74
2021/06/28 00:15:08;;;;;;;10.43;7.73;;;20.60;98.10;;;;;;5115251;23;20224;-74
2021/06/28 00:17:11;;;;;;;9.57;7.47;;;20.60;98.10;;;;;;5115895;23;20261;-74
2021/06/28 00:19:14;;;;;;;10.83;7.90;;;20.60;98.00;;;;;;5116216;23;20199;-74
2021/06/28 00:21:16;;;;;;;11.67;7.83;;;20.60;98.00;;;;;;5118058;23;20207;-74
2021/06/28 00:23:19;;;;;;;10.17;7.53;;;20.60;98.10;;;;;;5116611;23;20194;-74
2021/06/28 00:25:22;;;;;;;10.73;7.27;;;20.50;98.00;;;;;;5118300;23;20531;-74
2021/06/28 00:27:24;;;;;;;9.57;7.30;;;20.50;98.00;;;;;;5116865;23;20213;-75
2021/06/28 00:29:27;;;;;;;10.90;7.83;;;20.50;98.00;;;;;;5117262;23;20196;-75
2021/06/28 00:31:28;;;;;;;9.67;7.37;;;20.50;98.10;;;;;;5117591;23;20215;-75
2021/06/28 00:33:30;;;;;;;8.90;7.00;;;20.50;98.10;;;;;;5117328;23;20254;-75
2021/06/28 00:35:32;;;;;;;8.63;6.80;;;20.50;98.20;;;;;;5117887;23;20194;-75
2021/06/28 00:37:34;;;;;;;9.13;7.23;;;20.40;98.10;;;;;;5117708;23;20257;-75
2021/06/28 00:39:36;;;;;;;9.60;6.63;;;20.40;98.10;;;;;;5117792;23;20218;-74
2021/06/28 00:41:38;;;;;;;9.63;7.03;;;20.40;98.10;;;;;;5117444;23;20210;-75
2021/06/28 00:43:39;;;;;;;8.87;6.80;;;20.40;98.10;;;;;;5117844;23;20632;-75
2021/06/28 00:45:44;;;;;;;10.67;7.13;;;20.40;98.10;;;;;;5117540;23;20188;-74
2021/06/28 00:47:47;;;;;;;9.07;6.57;;;20.40;98.00;;;;;;5116792;23;20210;-74
2021/06/28 00:49:49;;;;;;;9.03;6.63;;;20.40;97.90;;;;;;5117470;23;20297;-74
2021/06/28 00:51:50;;;;;;;8.70;7.00;;;20.40;97.70;;;;;;5117276;23;20186;-75
2021/06/28 00:53:54;;;;;;;9.07;6.80;;;20.40;97.60;;;;;;5116411;23;20186;-75
2021/06/28 00:56:08;;;;;;;9.10;6.63;;;20.40;97.60;;;;;;5116711;23;20190;-75
2021/06/28 00:58:11;;;;;;;9.00;6.57;;;20.40;97.50;;;;;;5116849;23;20207;-75
2021/06/28 01:00:15;;;;;;;8.07;6.50;;;20.40;97.50;;;;;;5115340;23;20238;-75
2021/06/28 01:02:18;;;;;;;9.27;6.30;;;20.40;97.50;;;;;;5117746;23;20532;-75
2021/06/28 01:04:20;;;;;;;7.73;6.17;;;20.40;97.40;;;;;;5116527;23;20312;-75
2021/06/28 01:06:22;;;;;;;8.80;6.50;;;20.40;97.50;;;;;;5115984;23;20543;-75
2021/06/28 01:08:23;;;;;;;8.30;6.50;;;20.40;97.50;;;;;;5098125;23;20279;-73
2021/06/28 01:10:25;;;;;;;8.83;6.73;;;20.50;97.80;;;;;;5092523;23;20245;-73
2021/06/28 01:12:27;;;;;;;8.43;6.33;;;20.40;98.00;;;;;;5091305;23;20190;-72
2021/06/28 01:14:29;;;;;;;8.07;6.57;;;20.40;98.30;;;;;;5091850;23;20253;-73
2021/06/28 01:16:31;;;;;;;8.37;6.60;;;20.40;98.30;;;;;;5093013;23;20638;-73
2021/06/28 01:18:34;;;;;;;8.13;6.47;;;20.40;98.10;;;;;;5092028;23;20257;-73
2021/06/28 01:20:37;;;;;;;8.93;6.37;;;20.40;97.90;;;;;;5090380;23;20259;-72
2021/06/28 01:22:41;;;;;;;8.03;6.37;;;20.40;97.80;;;;;;5091670;23;20242;-72
2021/06/28 01:24:44;;;;;;;6.97;6.17;;;20.40;98.00;;;;;;5092211;23;20185;-73
2021/06/28 01:26:46;;;;;;;8.53;6.10;;;20.40;97.80;;;;;;5092438;23;20541;-73
2021/06/28 01:28:48;;;;;;;7.43;6.20;;;20.40;97.70;;;;;;5092203;23;20679;-73
2021/06/28 01:30:51;;;;;;;7.77;6.07;;;20.40;97.50;;;;;;5091502;23;20584;-72
2021/06/28 01:32:52;;;;;;;7.87;5.63;;;20.40;97.00;;;;;;5092695;23;20184;-73
2021/06/28 01:34:54;;;;;;;8.20;5.67;;;20.40;96.40;;;;;;5090679;23;20206;-73
2021/06/28 01:36:56;;;;;;;6.50;5.47;;;20.40;96.10;;;;;;5091690;23;20513;-73
2021/06/28 01:38:58;;;;;;;7.03;5.40;;;20.40;95.80;;;;;;5092074;23;20191;-73
2021/06/28 01:41:01;;;;;;;6.17;5.10;;;20.40;95.50;;;;;;5091175;23;20184;-73
2021/06/28 01:43:04;;;;;;;5.97;4.80;;;20.40;95.30;;;;;;5092281;23;20252;-73
2021/06/28 01:45:08;;;;;;;5.90;4.90;;;20.40;95.20;;;;;;5091205;23;20190;-73
2021/06/28 01:47:10;;;;;;;5.60;4.70;;;20.40;95.10;;;;;;5091778;23;20203;-73
2021/06/28 01:49:11;;;;;;;5.80;5.13;;;20.40;95.20;;;;;;5091675;23;20191;-73
2021/06/28 01:51:13;;;;;;;5.90;4.90;;;20.40;95.30;;;;;;5091001;23;20191;-73
2021/06/28 01:53:15;;;;;;;6.43;5.13;;;20.40;95.50;;;;;;5091537;23;20184;-73
2021/06/28 01:55:19;;;;;;;6.53;5.60;;;20.40;95.70;;;;;;5091198;23;20248;-73
2021/06/28 01:57:22;;;;;;;5.73;4.70;;;20.40;95.70;;;;;;5091107;23;20577;-73
2021/06/28 01:59:24;;;;;;;6.17;4.83;;;20.40;95.90;;;;;;5091166;23;20191;-72
2021/06/28 02:01:28;;;;;;;6.40;4.87;;;20.40;96.00;;;;;;5090576;23;20193;-73
2021/06/28 02:03:35;;;;;;;6.23;5.20;;;20.40;95.90;;;;;;5091329;23;20193;-74
2021/06/28 02:05:40;;;;;;;6.30;4.90;;;20.40;95.80;;;;;;5091793;23;20311;-73
2021/06/28 02:07:42;;;;;;;6.77;4.90;;;20.40;95.90;;;;;;5090690;23;20209;-74
2021/06/28 02:09:43;;;;;;;5.73;5.10;;;20.40;95.90;;;;;;5091265;23;20191;-74
2021/06/28 02:11:46;;;;;;;6.27;5.20;;;20.40;96.00;;;;;;5092309;23;20254;-74
2021/06/28 02:13:49;;;;;;;6.50;5.33;;;20.40;96.00;;;;;;5092568;23;20700;-74
2021/06/28 02:15:51;;;;;;;5.60;4.93;;;20.40;96.10;;;;;;5091994;23;20190;-73
2021/06/28 02:17:52;;;;;;;6.87;5.47;;;20.40;96.20;;;;;;5091857;23;20213;-74
2021/06/28 02:19:54;;;;;;;6.60;5.67;;;20.40;96.40;;;;;;5091680;23;20695;-74
2021/06/28 02:21:56;;;;;;;6.53;5.27;;;20.40;96.70;;;;;;5091517;23;20254;-73
2021/06/28 02:23:58;;;;;;;6.40;5.40;;;20.40;96.60;;;;;;5092110;23;20239;-74
2021/06/28 02:26:02;;;;;;;6.83;5.43;;;20.40;96.50;;;;;;5091600;23;20234;-74
2021/06/28 02:28:04;;;;;;;6.87;5.30;;;20.40;96.50;;;;;;5091353;23;20216;-74
2021/06/28 02:30:11;;;;;;;6.47;5.13;;;20.40;96.60;;;;;;5091863;23;20187;-74
2021/06/28 02:32:12;;;;;;;6.97;5.60;;;20.40;96.50;;;;;;5092182;23;20229;-74
2021/06/28 02:34:14;;;;;;;7.03;5.33;;;20.30;96.40;;;;;;5091784;23;20515;-74
2021/06/28 02:36:16;;;;;;;7.00;5.73;;;20.30;96.40;;;;;;5091712;23;20193;-74
2021/06/28 02:38:18;;;;;;;7.17;5.70;;;20.30;96.40;;;;;;5092306;23;20270;-74
2021/06/28 02:40:20;;;;;;;7.73;5.43;;;20.30;96.30;;;;;;5091309;23;20198;-74
2021/06/28 02:42:22;;;;;;;6.70;5.13;;;20.30;96.30;;;;;;5091637;23;20182;-74
2021/06/28 02:44:23;;;;;;;6.00;5.40;;;20.30;96.40;;;;;;5090727;23;20237;-74
2021/06/28 02:46:26;;;;;;;6.90;5.50;;;20.30;96.70;;;;;;5090777;23;20190;-74
2021/06/28 02:48:28;;;;;;;7.00;5.10;;;20.30;96.30;;;;;;5091464;23;20210;-74
2021/06/28 02:50:30;;;;;;;6.30;5.17;;;20.30;96.30;;;;;;5090602;23;20244;-74
2021/06/28 02:52:32;;;;;;;8.00;5.43;;;20.30;96.20;;;;;;5091889;23;20187;-74
2021/06/28 02:54:33;;;;;;;7.57;5.40;;;20.30;96.10;;;;;;5091804;23;20189;-74
2021/06/28 02:56:35;;;;;;;7.47;5.40;;;20.30;96.10;;;;;;5090737;23;20194;-74
2021/06/28 02:58:37;;;;;;;6.93;5.07;;;20.30;96.00;;;;;;5091080;23;20756;-73
2021/06/28 03:00:39;;;;;;;6.20;5.07;;;20.30;96.00;;;;;;5091049;23;20574;-74
2021/06/28 03:02:42;;;;;;;7.60;5.90;;;20.30;95.90;;;;;;5090107;23;20224;-74
2021/06/28 03:04:44;;;;;;;7.13;5.03;;;20.30;96.00;;;;;;5090084;23;20380;-73
2021/06/28 03:06:46;;;;;;;7.17;5.30;;;20.30;96.10;;;;;;5090903;23;20187;-73
2021/06/28 03:08:48;;;;;;;6.97;5.40;;;20.30;96.10;;;;;;5090304;23;20271;-74
2021/06/28 03:10:50;;;;;;;5.63;5.03;;;20.30;96.10;;;;;;5090532;23;20709;-73
2021/06/28 03:12:52;;;;;;;7.00;5.23;;;20.30;96.20;;;;;;5090509;23;20283;-74
2021/06/28 03:14:53;;;;;;;6.40;5.03;;;20.20;96.20;;;;;;5089601;23;20580;-74
2021/06/28 03:16:55;;;;;;;7.87;5.73;;;20.20;96.20;;;;;;5091036;23;20239;-74
2021/06/28 03:18:58;;;;;;;8.60;5.40;;;20.20;96.20;;;;;;5091464;23;20191;-74
2021/06/28 03:21:01;;;;;;;6.77;5.27;;;20.20;96.30;;;;;;5090163;23;20188;-73
2021/06/28 03:23:03;;;;;;;8.77;5.80;;;20.20;96.40;;;;;;5091472;23;20246;-73
2021/06/28 03:25:05;;;;;;;7.27;5.50;;;20.20;96.50;;;;;;5090623;23;20189;-72
2021/06/28 03:27:07;;;;;;;7.97;5.67;;;20.20;96.70;;;;;;5090921;23;20217;-73
2021/06/28 03:29:09;;;;;;;5.93;5.33;;;20.20;96.80;;;;;;5091228;23;20185;-73
2021/06/28 03:31:11;;;;;;;6.60;5.13;;;20.20;97.00;;;;;;5089967;23;20191;-72
2021/06/28 03:33:13;;;;;;;7.50;5.80;;;20.20;97.20;;;;;;5091604;23;20418;-73
2021/06/28 03:35:17;;;;;;;6.87;5.60;;;20.20;97.50;;;;;;5090789;23;20495;-73
2021/06/28 03:37:19;;;;;;;8.10;5.93;;;20.20;97.80;;;;;;5090788;23;20670;-73
2021/06/28 03:39:20;;;;;;;7.33;5.77;;;20.20;98.20;;;;;;5090213;23;20511;-73
2021/06/28 03:41:22;;;;;;;8.20;5.87;;;20.20;98.60;;;;;;5090876;23;20243;-73
2021/06/28 03:43:24;;;;;;;6.93;5.73;;;20.20;98.70;;;;;;5091331;23;20184;-73
2021/06/28 03:45:26;;;;;;;6.37;5.63;;;20.20;98.90;;;;;;5091176;23;20212;-73
2021/06/28 03:47:27;;;;;;;7.53;6.10;;;20.10;99.10;;;;;;5091527;23;20212;-73
2021/06/28 03:49:29;;;;;;;8.30;6.00;;;20.10;99.20;;;;;;5090187;23;20211;-73
2021/06/28 03:51:32;;;;;;;7.37;6.20;;;20.10;99.20;;;;;;5091621;23;20222;-73
2021/06/28 03:53:34;;;;;;;6.87;5.87;;;20.10;99.30;;;;;;5090532;23;20352;-73
2021/06/28 03:55:36;;;;;;;7.60;5.93;;;20.10;99.40;;;;;;5090476;23;20188;-73
2021/06/28 03:57:38;;;;;;;8.07;6.30;;;20.10;99.40;;;;;;5091778;23;20209;-73
2021/06/28 03:59:39;;;;;;;7.73;6.13;;;20.10;99.30;;;;;;5089617;23;20189;-75
2021/06/28 04:01:41;;;;;;;7.90;6.40;;;20.10;99.30;;;;;;5091875;23;20530;-73
2021/06/28 04:03:43;;;;;;;7.63;5.93;;;20.10;99.20;;;;;;5090705;23;20212;-73
2021/06/28 04:05:44;;;;;;;8.43;6.60;;;20.10;99.20;;;;;;5091459;23;20220;-74
2021/06/28 04:07:48;;;;;;;7.67;6.23;;;20.20;99.20;;;;;;5090069;23;20711;-74
2021/06/28 04:09:49;;;;;;;8.00;6.07;;;20.20;99.10;;;;;;5089841;23;20187;-74
2021/06/28 04:11:51;;;;;;;8.57;6.70;;;20.20;99.00;;;;;;5091794;23;20194;-74
2021/06/28 04:13:53;;;;;;;7.60;6.47;;;20.20;99.00;;;;;;5091229;23;20215;-74
2021/06/28 04:15:54;;;;;;;8.27;6.33;;;20.20;98.90;;;;;;5091301;23;20215;-74
2021/06/28 04:17:56;;;;;;;8.63;6.70;;;20.20;98.80;;;;;;5091706;23;20215;-74
2021/06/28 04:19:58;;;;;;;8.90;6.63;;;20.30;98.60;;;;;;5091581;23;20190;-74
2021/06/28 04:22:00;;;;;;;9.47;7.00;;;20.30;98.50;;;;;;5089590;23;20187;-74
2021/06/28 04:24:04;;;;;;;11.80;7.17;;;20.30;98.50;;;;;;5090302;23;20241;-74
2021/06/28 04:26:06;;;;;;;10.87;7.20;;;20.20;98.30;;;;;;5090671;23;20188;-74
2021/06/28 04:28:07;;;;;;;9.83;7.37;;;20.30;98.20;;;;;;5090064;23;20212;-74
2021/06/28 04:30:11;;;;;;;9.40;6.80;;;20.40;98.20;;;;;;5090244;23;20571;-74
2021/06/28 04:32:13;;;;;;;8.63;6.60;;;20.40;98.20;;;;;;5091653;23;20198;-73
2021/06/28 04:34:15;;;;;;;7.57;6.70;;;20.40;98.10;;;;;;5090470;23;20188;-73
2021/06/28 04:36:16;;;;;;;11.03;7.57;;;20.40;97.90;;;;;;5089760;23;20188;-73
2021/06/28 04:38:18;;;;;;;9.87;7.70;;;20.50;97.90;;;;;;5089847;23;20210;-73
2021/06/28 04:40:27;;;;;;;9.93;7.47;;;20.50;97.80;;;;;;5090528;23;20216;-74
2021/06/28 04:42:29;;;;;;;12.90;7.73;;;20.50;97.80;;;;;;5090258;23;20174;-74
2021/06/28 04:44:31;;;;;;;9.13;7.50;;;20.50;97.80;;;;;;5090418;23;20189;-74
2021/06/28 04:46:32;;;;;;;8.80;7.67;;;20.50;98.20;;;;;;5090922;23;20190;-74
2021/06/28 04:48:34;;;;;;;8.53;7.27;;;20.50;98.00;;;;;;5091118;23;20211;-74
2021/06/28 04:50:36;;;;;;;9.10;7.50;;;20.60;98.20;;;;;;5091504;23;20189;-74
2021/06/28 04:52:38;;;;;;;12.03;8.03;;;20.60;98.40;;;;;;5090118;23;20522;-74
2021/06/28 04:54:40;;;;;;;10.30;7.20;;;20.60;98.60;;;;;;5091457;23;20248;-74
2021/06/28 04:56:43;;;;;;;8.30;6.97;;;20.60;98.70;;;;;;5090518;23;20217;-73
2021/06/28 04:58:45;;;;;;;8.20;6.53;;;20.60;98.60;;;;;;5090978;23;20210;-73
2021/06/28 05:00:46;;;;;;;9.53;7.17;;;20.60;98.70;;;;;;5090125;23;20240;-74
2021/06/28 05:02:48;;;;;;;9.90;7.80;;;20.70;98.50;;;;;;5090345;23;20194;-74
2021/06/28 05:04:50;;;;;;;9.73;7.20;;;20.70;98.30;;;;;;5090359;23;20191;-73
2021/06/28 05:06:52;;;;;;;8.90;7.37;;;20.70;98.20;;;;;;5091552;23;20248;-74
2021/06/28 05:08:53;;;;;;;10.10;7.33;;;20.70;98.30;;;;;;5091794;23;20210;-74
2021/06/28 05:10:55;;;;;;;12.10;7.30;;;20.70;98.50;;;;;;5091193;23;20194;-74
2021/06/28 05:12:58;;;;;;;9.77;8.10;;;20.70;98.80;;;;;;5091572;23;20248;-74
2021/06/28 05:15:00;;;;;;;10.10;7.33;;;20.80;99.00;;;;;;5092126;23;20246;-74
2021/06/28 05:17:01;;;;;;;12.20;8.50;;;20.80;99.20;;;;;;5091814;23;20194;-74
2021/06/28 05:19:03;;;;;;;9.17;7.70;;;20.80;99.30;;;;;;5092472;23;20248;-74
2021/06/28 05:21:05;;;;;;;10.47;7.80;;;20.80;99.30;;;;;;5092447;23;20187;-74
2021/06/28 05:23:07;;;;;;;10.10;8.47;;;20.90;99.30;;;;;;5092680;23;20498;-74
2021/06/28 05:25:10;;;;;;;10.83;8.60;;;20.80;99.20;;;;;;5092582;23;20544;-73
2021/06/28 05:27:12;;;;;;;10.47;7.93;;;20.80;99.10;;;;;;5091896;23;20246;-74
2021/06/28 05:29:15;;;;;;;13.80;9.00;;;20.90;99.00;;;;;;5091682;23;20513;-74
2021/06/28 05:31:17;;;;;;;10.20;8.83;;;20.90;98.80;;;;;;5092287;23;20186;-74
2021/06/28 05:33:18;;;;;;;12.27;8.97;;;21.00;98.70;;;;;;5092153;23;20215;-74
2021/06/28 05:35:20;;;;;;;11.77;8.93;;;21.00;98.70;;;;;;5091727;23;20190;-74
2021/06/28 05:37:22;;;;;;;11.03;8.80;;;21.00;98.60;;;;;;5092006;23;20214;-73
2021/06/28 05:39:24;;;;;;;13.90;9.93;;;21.10;98.40;;;;;;5091248;23;20637;-74
2021/06/28 05:41:26;;;;;;;11.20;9.33;;;21.10;98.30;;;;;;5091552;23;20191;-72
2021/06/28 05:43:28;;;;;;;14.53;9.83;;;21.10;98.10;;;;;;5092165;23;20192;-73
2021/06/28 05:45:31;;;;;;;10.50;9.40;;;21.20;98.10;;;;;;5092383;23;20191;-74
2021/06/28 05:47:34;;;;;;;10.23;8.70;;;21.20;98.00;;;;;;5092151;23;20598;-73
2021/06/28 05:49:37;;;;;;;12.27;9.60;;;21.20;98.00;;;;;;5091790;23;20191;-74
2021/06/28 05:51:39;;;;;;;12.20;9.00;;;21.20;98.00;;;;;;5092401;23;20663;-74
2021/06/28 05:53:43;;;;;;;13.17;9.70;;;21.20;98.10;;;;;;5092773;23;20187;-74
2021/06/28 05:55:47;;;;;;;11.73;9.70;;;21.20;98.20;;;;;;5092127;23;20186;-74
2021/06/28 05:57:50;;;;;;;10.97;9.23;;;21.20;98.20;;;;;;5092042;23;20667;-74
2021/06/28 05:59:54;;;;;;;12.40;9.37;;;21.30;98.20;;;;;;5091579;23;20241;-74
2021/06/28 06:01:57;;;;;;;11.70;9.50;;;21.30;98.20;;;;;;5092327;23;20517;-74
2021/06/28 06:03:58;;;;;;;12.07;9.80;;;21.30;98.20;;;;;;5087224;23;20227;-74
2021/06/28 06:06:00;;;;;;;13.87;9.80;;;21.30;98.10;;;;;;5086281;23;20199;-75
2021/06/28 06:08:02;;;;;;;10.97;9.57;;;21.20;98.10;;;;;;5086798;23;20218;-72
2021/06/28 06:10:05;;;;;;;15.80;8.90;;;21.30;98.20;;;;;;5086531;23;20299;-72
2021/06/28 06:12:07;;;;;;;10.87;8.90;;;21.30;98.30;;;;;;5086281;23;20242;-72
2021/06/28 06:14:09;;;;;;;10.90;9.17;;;21.40;98.30;;;;;;5087068;23;20250;-73
2021/06/28 06:16:11;;;;;;;12.93;9.23;;;21.40;98.20;;;;;;5076179;23;20266;-73
2021/06/28 06:18:14;;;;;;;12.47;9.20;;;21.40;98.10;;;;;;5085505;23;20207;-73
2021/06/28 06:20:16;;;;;;;12.27;8.77;;;21.50;98.00;;;;;;5086062;23;20709;-73
2021/06/28 06:22:18;;;;;;;11.07;9.03;;;21.50;97.90;;;;;;5086078;23;20191;-73
2021/06/28 06:24:23;;;;;;;10.63;8.53;;;21.50;97.80;;;;;;5082140;23;20698;-73
2021/06/28 06:26:24;;;;;;;9.07;7.97;;;21.60;97.50;;;;;;5086400;23;20176;-73
2021/06/28 06:28:26;;;;;;;11.57;8.90;;;21.70;97.40;;;;;;5086668;23;20683;-73
2021/06/28 06:30:28;;;;;;;10.97;8.87;;;21.70;97.10;;;;;;5086383;23;20192;-73
2021/06/28 06:32:30;;;;;;;10.50;8.37;;;21.80;97.10;;;;;;5086370;23;20223;-73
2021/06/28 06:34:33;;;;;;;12.00;8.60;;;21.80;96.70;;;;;;5086761;23;20239;-73
2021/06/28 06:36:35;;;;;;;10.60;8.30;;;21.90;96.40;;;;;;5086814;23;20238;-73
2021/06/28 06:38:36;;;;;;;11.43;9.10;;;21.90;96.70;;;;;;5086362;23;20207;-73
2021/06/28 06:40:38;;;;;;;12.03;8.93;;;22.00;96.90;;;;;;5085724;23;20200;-73
2021/06/28 06:42:40;;;;;;;10.27;8.50;;;22.00;97.00;;;;;;5087316;23;20198;-73
2021/06/28 06:44:42;;;;;;;12.43;8.97;;;22.00;97.00;;;;;;5086933;23;20509;-73
2021/06/28 06:46:44;;;;;;;8.67;7.77;;;22.00;96.90;;;;;;5085614;23;20192;-73
2021/06/28 06:48:45;;;;;;;10.27;8.47;;;22.10;96.90;;;;;;5086519;23;20208;-73
2021/06/28 06:50:48;;;;;;;9.63;8.60;;;22.10;96.90;;;;;;5086566;23;20250;-73
2021/06/28 06:52:50;;;;;;;10.73;8.17;;;22.20;96.80;;;;;;5086641;23;20225;-73
2021/06/28 06:54:52;;;;;;;10.10;8.43;;;22.30;96.70;;;;;;5086560;23;20192;-73
2021/06/28 06:56:54;;;;;;;12.70;9.37;;;22.30;96.40;;;;;;5086368;23;20643;-73
2021/06/28 06:58:56;;;;;;;11.43;8.47;;;22.40;96.40;;;;;;5086733;23;20189;-72
2021/06/28 07:00:57;;;;;;;12.60;8.90;;;22.40;96.40;;;;;;5086443;23;20200;-73
2021/06/28 07:02:59;;;;;;;10.43;8.73;;;22.40;96.40;;;;;;5085873;23;20192;-72
2021/06/28 07:05:01;;;;;;;9.30;8.17;;;22.50;96.40;;;;;;5086946;23;20196;-72
2021/06/28 07:07:04;;;;;;;11.53;8.50;;;22.50;96.10;;;;;;5086562;23;20196;-72
2021/06/28 07:09:06;;;;;;;9.00;8.00;;;22.60;95.60;;;;;;5108068;23;20483;-76
2021/06/28 07:11:11;;;;;;;9.37;8.03;;;22.60;95.40;;;;;;5111178;23;20510;-76
2021/06/28 07:13:13;;;;;;;9.83;7.87;;;22.60;95.30;;;;;;5110977;23;20196;-76
2021/06/28 07:15:17;;;;;;;9.13;8.17;;;22.60;95.20;;;;;;5111140;23;20188;-77
2021/06/28 07:17:18;;;;;;;9.93;8.10;;;22.60;95.20;;;;;;5111063;23;20503;-77
2021/06/28 07:19:20;;;;;;;13.20;8.27;;;22.60;95.30;;;;;;5085933;23;20190;-77
2021/06/28 07:21:22;;;;;;;10.87;8.47;;;22.60;95.10;;;;;;5085857;23;20545;-77
2021/06/28 07:23:25;;;;;;;10.13;7.60;;;22.60;94.80;;;;;;5087404;23;20250;-77
2021/06/28 07:25:27;;;;;;;10.20;8.13;;;22.60;94.70;;;;;;5086519;23;20536;-77
2021/06/28 07:27:29;;;;;;;9.03;7.70;;;22.60;94.60;;;;;;5085862;23;20241;-77
2021/06/28 07:29:31;;;;;;;8.20;7.30;;;22.60;94.70;;;;;;5086434;23;20211;-77
2021/06/28 07:31:33;;;;;;;9.20;7.67;;;22.70;94.70;;;;;;5087051;23;20195;-77
2021/06/28 07:33:38;;;;;;;9.30;8.00;;;22.70;94.50;;;;;;5087013;23;20190;-77
2021/06/28 07:35:40;;;;;;;9.43;7.40;;;22.80;94.20;;;;;;5086589;23;20245;-77
2021/06/28 07:37:42;;;;;;;9.80;7.47;;;22.90;94.20;;;;;;5086898;23;20989;-77
2021/06/28 07:39:45;;;;;;;8.60;6.80;;;22.90;93.90;;;;;;5086276;23;20185;-77
2021/06/28 07:41:49;;;;;;;9.17;7.20;;;23.00;93.60;;;;;;5086776;23;20240;-77
2021/06/28 07:43:52;;;;;;;9.07;7.47;;;23.10;93.00;;;;;;5087590;23;20188;-76
2021/06/28 07:45:55;;;;;;;8.87;7.20;;;23.20;93.00;;;;;;5086971;23;20195;-78
2021/06/28 07:47:57;;;;;;;9.67;7.20;;;23.20;92.50;;;;;;5087197;23;20292;-78
2021/06/28 07:49:59;;;;;;;8.77;7.27;;;23.30;91.90;;;;;;5087246;23;20229;-77
2021/06/28 07:52:01;;;;;;;8.47;7.30;;;23.30;92.00;;;;;;5089770;23;20203;-77
2021/06/28 07:54:03;;;;;;;9.70;7.20;;;23.40;92.20;;;;;;5088288;23;20720;-77
2021/06/28 07:56:17;;;;;;;9.80;7.27;;;23.40;92.30;;;;;;5089210;23;20191;-78
2021/06/28 07:58:18;;;;;;;8.83;7.43;;;23.40;92.60;;;;;;5093507;23;20294;-78
2021/06/28 08:00:21;;;;;;;9.43;7.77;;;23.50;92.60;;;;;;5091352;23;20249;-77
2021/06/28 08:02:22;;;;;;;8.73;7.60;;;23.50;92.20;;;;;;5086982;23;20745;-77
2021/06/28 08:04:26;;;;;;;9.23;7.60;;;23.50;91.90;;;;;;5086646;23;20634;-78
2021/06/28 08:06:28;;;;;;;8.87;7.00;;;23.60;91.50;;;;;;5086086;23;20206;-76
2021/06/28 08:08:30;;;;;;;9.77;7.83;;;23.60;90.90;;;;;;5086042;23;20226;-76
2021/06/28 08:10:31;;;;;;;9.20;6.97;;;23.70;90.90;;;;;;5085304;23;20265;-76
2021/06/28 08:12:35;;;;;;;8.93;7.60;;;23.70;90.60;;;;;;5085357;23;20198;-79
2021/06/28 08:14:36;;;;;;;8.70;7.37;;;23.70;90.00;;;;;;5088051;23;20199;-75
2021/06/28 08:16:38;;;;;;;8.87;6.63;;;23.80;90.20;;;;;;5089410;23;20190;-79
2021/06/28 08:18:42;;;;;;;8.73;7.30;;;23.80;89.60;;;;;;5085689;23;20211;-77
2021/06/28 08:20:44;;;;;;;8.20;7.20;;;23.90;90.00;;;;;;5086434;23;20312;-75
2021/06/28 08:22:46;;;;;;;8.80;6.87;;;23.90;89.40;;;;;;5086251;23;20192;-76
2021/06/28 08:24:48;;;;;;;9.03;6.77;;;24.00;88.90;;;;;;5086125;23;20483;-76
2021/06/28 08:26:51;;;;;;;8.43;7.03;;;24.00;87.50;;;;;;5085665;23;20214;-75
2021/06/28 08:28:55;;;;;;;8.70;6.90;;;24.00;88.00;;;;;;5086407;23;20321;-75
2021/06/28 08:30:57;;;;;;;9.17;7.40;;;24.10;87.50;;;;;;5085555;23;20222;-76
2021/06/28 08:32:59;;;;;;;8.00;7.20;;;24.10;86.90;;;;;;5085358;23;20194;-75
2021/06/28 08:35:01;;;;;;;8.43;7.50;;;24.20;87.30;;;;;;5086074;23;20198;-75
2021/06/28 08:37:04;;;;;;;7.40;6.57;;;24.20;88.20;;;;;;5081180;23;20207;-73
2021/06/28 08:39:07;;;;;;;11.50;7.10;;;24.30;86.80;;;;;;5082859;23;20208;-73
2021/06/28 08:41:15;;;;;;;6.87;6.10;;;24.30;85.30;;;;;;5086520;23;20187;-73
2021/06/28 08:43:17;;;;;;;8.73;6.90;;;24.40;84.60;;;;;;5085552;23;20227;-73
2021/06/28 08:45:21;;;;;;;9.77;7.50;;;24.50;84.10;;;;;;5087216;23;20194;-73
2021/06/28 08:47:24;;;;;;;7.93;6.77;;;24.60;83.90;;;;;;5086944;23;20223;-73
2021/06/28 08:49:27;;;;;;;8.80;7.17;;;24.70;83.80;;;;;;5086075;23;20291;-73
2021/06/28 08:51:30;;;;;;;7.87;6.67;;;24.70;83.70;;;;;;5086176;23;20188;-74
2021/06/28 08:53:31;;;;;;;8.97;6.63;;;24.80;82.80;;;;;;5086562;23;20196;-73
2021/06/28 08:55:34;;;;;;;8.07;7.03;;;24.90;81.80;;;;;;5086704;23;20263;-74
2021/06/28 08:57:36;;;;;;;7.60;6.80;;;25.00;82.00;;;;;;5086144;23;20247;-74
2021/06/28 08:59:38;;;;;;;7.77;6.70;;;25.00;82.40;;;;;;5086371;23;20188;-74
2021/06/28 09:01:41;;;;;;;8.83;7.20;;;25.10;81.00;;;;;;5086981;23;20188;-73
2021/06/28 09:03:43;;;;;;;8.03;6.27;;;25.20;80.70;;;;;;5086987;23;20192;-73
2021/06/28 09:05:52;;;;;;;10.70;6.40;;;25.30;80.00;;;;;;5086894;23;20243;-74
2021/06/28 09:08:09;;;;;;;7.97;6.67;;;25.40;81.60;;;;;;5083136;23;20219;-74
2021/06/28 09:10:34;;;;;;;10.60;6.50;;;25.40;79.20;;;;;;5087091;23;20215;-74
2021/06/28 09:12:50;;;;;;;7.23;6.37;;;25.50;78.30;;;;;;5087186;23;20172;-74
2021/06/28 09:14:54;;;;;;;7.33;6.20;;;25.60;79.20;;;;;;5086994;23;20176;-74
2021/06/28 09:16:57;;;;;;;7.73;6.47;;;25.60;77.60;;;;;;5086763;23;20194;-74
2021/06/28 09:19:01;;;;;;;8.57;6.43;;;25.70;77.80;;;;;;5087100;23;20687;-74
2021/06/28 09:21:07;;;;;;;8.20;6.63;;;25.80;77.40;;;;;;5086923;23;20643;-74
2021/06/28 09:23:18;;;;;;;10.30;6.27;;;25.80;77.90;;;;;;5087366;23;20230;-74
2021/06/28 09:25:35;;;;;;;6.83;6.00;;;25.90;76.00;;;;;;5087543;23;20258;-74
2021/06/28 09:27:44;;;;;;;11.50;6.73;;;26.00;76.40;;;;;;5087273;23;20227;-74
2021/06/28 09:29:50;;;;;;;7.67;6.43;;;26.10;74.80;;;;;;5086646;23;20560;-73
2021/06/28 09:31:52;;;;;;;7.10;6.20;;;26.10;73.70;;;;;;5087185;23;20176;-74
2021/06/28 09:34:09;;;;;;;7.83;6.37;;;26.20;74.10;;;;;;5087198;23;20304;-73
2021/06/28 09:36:22;;;;;;;7.00;6.30;;;26.20;74.70;;;;;;5086394;23;20222;-74
2021/06/28 09:38:32;;;;;;;6.43;5.80;;;26.30;73.30;;;;;;5086907;23;20262;-74
2021/06/28 09:40:35;;;;;;;6.90;6.20;;;26.40;71.40;;;;;;5087311;23;20191;-74
2021/06/28 09:42:37;;;;;;;7.17;6.23;;;26.40;68.80;;;;;;5086357;23;20195;-74
2021/06/28 09:44:41;;;;;;;6.50;5.90;;;26.50;68.70;;;;;;5087672;23;20188;-74
2021/06/28 09:46:42;;;;;;;7.20;6.20;;;26.60;68.10;;;;;;5086890;23;20192;-74
2021/06/28 09:48:48;;;;;;;7.40;5.83;;;26.70;67.10;;;;;;5088012;23;20282;-74
2021/06/28 09:50:51;;;;;;;6.90;5.87;;;26.70;67.50;;;;;;5086132;23;20199;-74
2021/06/28 09:52:54;;;;;;;7.20;5.90;;;26.80;65.50;;;;;;5086575;23;20184;-73
2021/06/28 09:54:55;;;;;;;7.53;6.33;;;26.90;64.10;;;;;;5087416;23;20242;-76
2021/06/28 09:56:57;;;;;;;6.60;5.90;;;26.90;63.50;;;;;;5085864;23;20204;-75
2021/06/28 09:58:59;;;;;;;6.87;5.90;;;27.10;62.60;;;;;;5086886;23;20711;-75
2021/06/28 10:01:03;;;;;;;6.80;6.10;;;27.10;61.80;;;;;;5086750;23;20214;-74
2021/06/28 10:03:05;;;;;;;6.73;5.77;;;27.20;60.40;;;;;;5086774;23;20192;-77
2021/06/28 10:05:14;;;;;;;7.20;5.97;;;27.30;61.00;;;;;;5087307;23;20196;-79
2021/06/28 10:07:19;;;;;;;6.73;6.13;;;27.40;61.80;;;;;;5087663;23;20195;-77
2021/06/28 10:09:27;;;;;;;6.73;5.60;;;27.50;61.80;;;;;;5086704;23;20274;-77
2021/06/28 10:11:30;;;;;;;6.33;5.73;;;27.60;60.10;;;;;;5088794;23;20176;-76
2021/06/28 10:13:34;;;;;;;7.07;6.00;;;27.70;59.90;;;;;;5089035;23;20179;-76
2021/06/28 10:15:38;;;;;;;6.70;5.70;;;27.80;59.30;;;;;;5088085;23;20754;-76
2021/06/28 10:17:41;;;;;;;6.87;5.30;;;28.00;57.70;;;;;;5087957;23;20296;-78
2021/06/28 10:19:43;;;;;;;5.83;5.23;;;28.10;57.50;;;;;;5088704;23;20219;-78
2021/06/28 10:21:45;;;;;;;6.40;5.67;;;28.20;57.80;;;;;;5088391;23;20191;-76
2021/06/28 10:23:49;;;;;;;8.20;7.30;;;28.30;58.10;;;;;;5088533;23;20180;-77
2021/06/28 10:25:51;;;;;;;11.43;8.27;;;28.50;57.20;;;;;;5088108;23;20636;-77
2021/06/28 10:27:53;;;;;;;22.10;11.50;;;28.60;56.80;;;;;;5088057;23;20559;-78
2021/06/28 10:29:55;;;;;;;16.85;9.27;;;28.80;56.70;;;;;;5087797;23;20216;-75
2021/06/28 10:31:56;;;;;;;13.20;7.20;;;28.90;56.50;;;;;;5087522;23;20192;-74
2021/06/28 10:34:02;;;;;;;10.00;6.38;;;29.10;58.70;;;;;;5085144;23;20246;-79
2021/06/28 10:36:08;;;;;;;6.28;5.68;;;29.20;54.60;;;;;;5086661;23;20254;-75